Time;durP1;ratioP1;P1;durP2;ratioP2;P2;SDS_P1;SDS_P2;PMS_P1;PMS_P2;Temp;Humidity;BMP_temperature;BMP_pressure;BME280_temperature;BME280_humidity;BME280_pressure;Samples;Min_cycle;Max_cycle;Signal;HPM_P1;HPM_P2
2021/12/17 00:00:46;;;;;;;21.48;19.15;;;15.50;30.40;;;;;;5096440;28;20739;-63
2021/12/17 00:03:20;;;;;;;21.63;18.38;;;15.50;30.40;;;;;;5096661;28;20199;-63
2021/12/17 00:06:06;;;;;;;21.08;18.67;;;15.50;30.40;;;;;;5098346;28;20235;-63
2021/12/17 00:08:34;;;;;;;21.33;18.48;;;15.50;30.40;;;;;;5105509;28;20325;-63
2021/12/17 00:11:01;;;;;;;19.30;17.30;;;15.50;30.30;;;;;;5116769;28;20206;-63
2021/12/17 00:13:29;;;;;;;19.42;17.40;;;15.50;30.30;;;;;;5116904;28;20272;-63
2021/12/17 00:15:57;;;;;;;20.17;18.05;;;15.40;30.30;;;;;;5117153;28;20309;-64
2021/12/17 00:18:32;;;;;;;19.90;17.77;;;15.40;30.30;;;;;;5116863;28;20206;-63
2021/12/17 00:40:27;;;;;;;15.00;13.40;;;15.40;30.30;;;;;;5075251;28;20621;-63
2021/12/17 00:48:38;;;;;;;14.75;13.30;;;15.40;30.20;;;;;;5042135;28;20207;-63
2021/12/17 00:53:52;;;;;;;14.70;13.20;;;15.40;30.20;;;;;;5102755;28;20233;-63
2021/12/17 00:56:20;;;;;;;14.27;12.85;;;15.30;30.10;;;;;;5116374;28;20263;-62
2021/12/17 00:58:47;;;;;;;14.30;12.60;;;15.40;30.20;;;;;;5115920;28;20207;-63
2021/12/17 01:01:15;;;;;;;13.18;11.77;;;15.30;30.20;;;;;;5116279;28;20290;-63
2021/12/17 01:03:43;;;;;;;12.50;11.02;;;15.30;30.10;;;;;;5116372;28;20195;-63
2021/12/17 01:06:12;;;;;;;12.77;11.48;;;15.30;30.10;;;;;;5115685;28;20239;-63
2021/12/17 01:08:41;;;;;;;11.30;10.18;;;15.30;30.10;;;;;;5115606;28;20287;-64
2021/12/17 01:11:09;;;;;;;11.65;10.43;;;15.30;30.10;;;;;;5115315;28;20207;-64
2021/12/17 01:13:38;;;;;;;12.98;10.35;;;15.30;30.10;;;;;;5115848;28;20288;-63
2021/12/17 01:16:06;;;;;;;11.18;10.07;;;15.30;30.10;;;;;;5112394;28;20211;-64
2021/12/17 01:18:47;;;;;;;11.38;10.25;;;15.30;30.10;;;;;;5095511;28;20561;-64
2021/12/17 01:21:30;;;;;;;10.23;9.23;;;15.30;30.20;;;;;;5096416;28;20568;-64
2021/12/17 01:24:10;;;;;;;11.68;9.43;;;15.30;30.10;;;;;;5095973;28;20203;-64
2021/12/17 01:38:50;;;;;;;9.45;8.55;;;15.20;30.00;;;;;;5095295;28;20601;-64
2021/12/17 01:41:12;;;;;;;9.60;8.65;;;15.20;30.10;;;;;;5094993;28;20204;-64
2021/12/17 01:43:45;;;;;;;8.80;8.00;;;15.20;30.10;;;;;;5098861;28;20191;-63
2021/12/17 01:46:19;;;;;;;8.57;7.68;;;15.20;30.10;;;;;;5115459;28;20215;-64
2021/12/17 01:49:00;;;;;;;8.57;7.78;;;15.20;30.00;;;;;;5115836;28;20758;-64
2021/12/17 02:00:09;;;;;;;7.78;7.00;;;15.20;30.00;;;;;;5040627;28;20502;-64
2021/12/17 02:02:41;;;;;;;7.68;6.97;;;15.20;30.00;;;;;;5115911;28;20524;-63
2021/12/17 02:05:10;;;;;;;6.90;6.30;;;15.20;30.00;;;;;;5115828;28;20222;-63
2021/12/17 02:07:39;;;;;;;7.38;6.60;;;15.10;30.00;;;;;;5115428;28;20227;-63
2021/12/17 02:19:22;;;;;;;6.55;5.95;;;15.10;30.00;;;;;;5096145;28;21499;-64
2021/12/17 02:29:54;;;;;;;5.70;5.10;;;15.10;30.00;;;;;;5078227;28;20500;-63
2021/12/17 02:32:24;;;;;;;5.63;5.13;;;15.10;30.00;;;;;;5078579;28;20232;-63
2021/12/17 02:35:07;;;;;;;5.72;5.13;;;15.10;30.00;;;;;;5078022;28;20702;-63
2021/12/17 02:37:36;;;;;;;5.22;4.72;;;15.10;30.00;;;;;;5078238;28;20216;-63
2021/12/17 02:40:19;;;;;;;5.43;4.93;;;15.10;30.00;;;;;;5093808;28;20211;-63
2021/12/17 02:45:33;;;;;;;5.00;4.53;;;15.10;30.00;;;;;;5097636;28;20223;-64
2021/12/17 02:48:04;;;;;;;5.18;4.63;;;15.10;30.00;;;;;;5098427;28;20207;-64
2021/12/17 02:50:32;;;;;;;5.35;4.68;;;15.00;30.00;;;;;;5097734;28;20478;-63
2021/12/17 02:53:03;;;;;;;4.85;4.40;;;15.00;30.00;;;;;;5098110;28;20211;-64
2021/12/17 02:55:31;;;;;;;5.03;4.15;;;15.00;30.00;;;;;;5097827;28;20208;-63
2021/12/17 02:57:59;;;;;;;5.15;4.50;;;15.00;30.00;;;;;;5096066;28;20618;-63
2021/12/17 03:00:29;;;;;;;4.97;4.38;;;15.00;30.00;;;;;;5097840;28;20215;-64
2021/12/17 03:02:57;;;;;;;4.32;3.92;;;15.00;30.00;;;;;;5098582;28;20284;-63
2021/12/17 03:05:26;;;;;;;3.83;3.53;;;15.00;30.00;;;;;;5098073;28;20203;-63
2021/12/17 03:07:54;;;;;;;4.00;3.55;;;15.00;30.00;;;;;;5098228;28;20242;-64
2021/12/17 03:10:23;;;;;;;4.32;3.92;;;15.00;30.00;;;;;;5097799;28;20691;-64
2021/12/17 03:12:53;;;;;;;3.95;3.65;;;15.00;29.90;;;;;;5097400;28;20493;-63
2021/12/17 03:15:30;;;;;;;3.70;3.40;;;15.00;30.00;;;;;;5097769;28;20250;-63
2021/12/17 03:18:31;;;;;;;3.65;3.35;;;15.00;30.00;;;;;;5098065;28;20217;-63
2021/12/17 03:23:43;;;;;;;3.42;3.13;;;14.90;30.00;;;;;;5096946;28;20598;-63
2021/12/17 03:26:14;;;;;;;3.92;3.50;;;14.90;30.00;;;;;;5081432;28;20228;-63
2021/12/17 03:28:44;;;;;;;4.18;3.38;;;14.90;29.90;;;;;;5057177;28;20228;-64
2021/12/17 03:31:12;;;;;;;3.45;3.15;;;14.90;30.00;;;;;;5057232;28;20494;-63
2021/12/17 03:33:42;;;;;;;3.40;3.10;;;14.90;30.00;;;;;;5057088;28;20250;-64
2021/12/17 03:36:11;;;;;;;4.00;3.60;;;14.90;30.00;;;;;;5057056;28;20671;-64
2021/12/17 03:38:40;;;;;;;3.72;3.42;;;14.90;29.90;;;;;;5056913;28;20213;-64
2021/12/17 03:41:17;;;;;;;3.38;2.97;;;14.90;30.60;;;;;;5057332;28;20564;-63
2021/12/17 03:43:47;;;;;;;3.30;3.00;;;14.90;30.00;;;;;;5057298;28;20568;-64
2021/12/17 03:46:15;;;;;;;3.42;3.13;;;14.90;29.90;;;;;;5057113;28;20236;-63
2021/12/17 03:48:42;;;;;;;2.75;2.55;;;14.90;30.00;;;;;;5057040;28;20205;-63
2021/12/17 03:51:14;;;;;;;3.13;2.83;;;14.90;30.00;;;;;;5057094;28;20608;-63
2021/12/17 03:53:44;;;;;;;3.17;2.90;;;14.90;30.00;;;;;;5092131;28;20230;-63
2021/12/17 03:56:12;;;;;;;2.80;2.60;;;14.90;29.90;;;;;;5097256;28;20225;-64
2021/12/17 03:58:40;;;;;;;2.90;2.60;;;14.90;30.00;;;;;;5096947;28;20235;-64
2021/12/17 04:01:09;;;;;;;2.90;2.70;;;14.80;29.90;;;;;;5096365;28;20217;-64
2021/12/17 04:03:37;;;;;;;3.03;2.83;;;14.90;30.00;;;;;;5096695;28;20310;-63
2021/12/17 04:06:05;;;;;;;3.13;2.88;;;14.90;29.90;;;;;;5096438;28;20304;-64
2021/12/17 04:08:33;;;;;;;3.25;2.95;;;14.90;30.00;;;;;;5095984;28;20219;-63
2021/12/17 04:11:05;;;;;;;2.85;2.63;;;14.80;29.90;;;;;;5097275;28;20231;-63
2021/12/17 04:13:35;;;;;;;2.97;2.78;;;14.80;29.90;;;;;;5096541;28;20243;-64
2021/12/17 04:16:06;;;;;;;2.95;2.58;;;14.80;29.90;;;;;;5096362;28;20258;-64
2021/12/17 04:18:37;;;;;;;2.78;2.58;;;14.80;29.90;;;;;;5096137;28;20234;-64
2021/12/17 04:21:13;;;;;;;2.70;2.50;;;14.80;29.90;;;;;;5079152;28;20208;-63
2021/12/17 04:23:41;;;;;;;2.80;2.60;;;14.80;29.90;;;;;;5076215;28;20210;-64
2021/12/17 04:26:08;;;;;;;2.65;2.45;;;14.80;29.90;;;;;;5075915;28;20216;-63
2021/12/17 04:28:42;;;;;;;3.03;2.50;;;14.80;29.90;;;;;;5076049;28;20223;-63
2021/12/17 04:31:09;;;;;;;2.45;2.25;;;14.80;29.90;;;;;;5075975;28;20661;-63
2021/12/17 04:33:40;;;;;;;2.90;2.70;;;14.80;29.90;;;;;;5064790;28;20232;-64
2021/12/17 04:36:09;;;;;;;2.60;2.40;;;14.80;29.90;;;;;;5074861;28;20549;-63
2021/12/17 04:38:36;;;;;;;2.40;2.20;;;14.70;29.90;;;;;;5075798;28;20208;-64
2021/12/17 04:41:36;;;;;;;2.92;2.60;;;14.70;29.80;;;;;;5075627;28;20307;-63
2021/12/17 04:44:05;;;;;;;3.20;2.22;;;14.70;29.80;;;;;;5076220;28;20273;-63
2021/12/17 04:46:40;;;;;;;2.88;2.65;;;14.70;29.80;;;;;;5075299;28;20204;-64
2021/12/17 04:57:29;;;;;;;2.60;2.40;;;14.70;29.80;;;;;;5075583;28;20203;-64
2021/12/17 04:59:59;;;;;;;2.50;2.30;;;14.70;29.90;;;;;;5075196;28;20655;-63
2021/12/17 05:02:28;;;;;;;2.53;2.33;;;14.70;29.90;;;;;;5075264;28;20290;-63
2021/12/17 05:05:04;;;;;;;2.67;2.42;;;14.70;29.90;;;;;;5075533;28;20200;-63
2021/12/17 05:07:31;;;;;;;2.53;2.33;;;14.70;29.90;;;;;;5086578;28;20329;-64
2021/12/17 05:10:06;;;;;;;2.53;2.33;;;14.70;29.90;;;;;;5094355;28;20223;-63
2021/12/17 05:18:19;;;;;;;2.42;2.22;;;14.70;29.90;;;;;;5095642;28;20203;-64
2021/12/17 05:20:51;;;;;;;2.78;2.58;;;14.70;29.90;;;;;;5095722;28;20230;-63
2021/12/17 05:23:23;;;;;;;2.38;2.17;;;14.70;29.90;;;;;;5095572;28;20212;-64
2021/12/17 05:25:51;;;;;;;2.40;2.20;;;14.70;29.90;;;;;;5095311;28;20571;-64
2021/12/17 05:28:18;;;;;;;2.75;2.55;;;14.60;29.70;;;;;;5095644;28;20230;-63
2021/12/17 05:30:48;;;;;;;2.30;2.10;;;14.70;29.80;;;;;;5095947;28;20223;-64
2021/12/17 05:33:16;;;;;;;2.78;2.50;;;14.60;29.80;;;;;;5095815;28;20204;-64
2021/12/17 05:35:44;;;;;;;2.63;2.30;;;14.60;29.80;;;;;;5075287;28;20224;-64
2021/12/17 05:38:14;;;;;;;2.80;2.60;;;14.60;29.80;;;;;;5075454;28;20223;-64
2021/12/17 05:40:43;;;;;;;2.90;2.40;;;14.60;29.80;;;;;;5074948;28;20211;-64
2021/12/17 05:43:12;;;;;;;2.50;2.30;;;14.60;29.80;;;;;;5074619;28;20274;-64
2021/12/17 05:45:50;;;;;;;2.63;2.40;;;14.60;29.80;;;;;;5077881;28;20207;-63
2021/12/17 05:48:21;;;;;;;2.60;2.40;;;14.60;29.80;;;;;;5078197;28;20746;-63
2021/12/17 05:50:51;;;;;;;2.60;2.40;;;14.60;29.80;;;;;;5079001;28;20716;-64
2021/12/17 05:53:20;;;;;;;2.75;2.53;;;14.60;29.80;;;;;;5078607;28;20524;-64
2021/12/17 05:55:47;;;;;;;2.63;2.42;;;14.60;29.90;;;;;;5077677;28;20242;-63
2021/12/17 05:58:16;;;;;;;2.90;2.40;;;14.60;29.80;;;;;;5077674;28;20638;-63
2021/12/17 06:00:45;;;;;;;3.10;2.50;;;14.60;29.80;;;;;;5077263;28;20531;-64
2021/12/17 06:03:13;;;;;;;2.88;2.58;;;14.50;29.80;;;;;;5077268;28;20208;-63
2021/12/17 06:05:40;;;;;;;2.70;2.50;;;14.50;29.80;;;;;;5076808;28;20295;-63
2021/12/17 06:08:08;;;;;;;3.25;2.55;;;14.50;29.80;;;;;;5077160;28;20204;-63
2021/12/17 06:10:37;;;;;;;2.72;2.35;;;14.50;29.80;;;;;;5077072;28;20205;-64
2021/12/17 06:13:05;;;;;;;2.60;2.40;;;14.50;29.80;;;;;;5076746;28;20200;-63
2021/12/17 06:15:32;;;;;;;2.75;2.53;;;14.50;29.80;;;;;;5076555;28;20235;-64
2021/12/17 06:18:00;;;;;;;2.63;2.40;;;14.50;29.80;;;;;;5076755;28;20648;-64
2021/12/17 06:20:27;;;;;;;2.90;2.65;;;14.50;29.80;;;;;;5076144;28;20262;-64
2021/12/17 06:22:55;;;;;;;2.50;2.30;;;14.50;29.80;;;;;;5076426;28;20220;-64
2021/12/17 06:25:23;;;;;;;3.08;2.78;;;14.50;29.80;;;;;;5077179;28;20477;-63
2021/12/17 06:27:52;;;;;;;2.45;2.25;;;14.50;29.80;;;;;;5077091;28;20595;-63
2021/12/17 06:30:20;;;;;;;2.80;2.42;;;14.50;29.80;;;;;;5076461;28;20196;-63
2021/12/17 06:32:47;;;;;;;2.95;2.65;;;14.50;29.80;;;;;;5076604;28;20200;-64
2021/12/17 06:35:15;;;;;;;2.75;2.50;;;14.50;29.80;;;;;;5076837;28;20255;-64
2021/12/17 06:37:43;;;;;;;2.83;2.63;;;14.50;29.80;;;;;;5076378;28;20208;-64
2021/12/17 06:40:11;;;;;;;2.45;2.25;;;14.50;29.80;;;;;;5077205;28;20270;-63
2021/12/17 06:42:39;;;;;;;2.70;2.50;;;14.50;29.80;;;;;;5076909;28;20203;-64
2021/12/17 06:45:18;;;;;;;2.90;2.60;;;14.50;29.80;;;;;;5077152;28;20243;-64
2021/12/17 06:47:53;;;;;;;2.90;2.40;;;14.50;29.80;;;;;;5077056;28;20212;-64
2021/12/17 07:10:13;;;;;;;2.60;2.40;;;14.40;29.80;;;;;;5074861;28;20219;-63
2021/12/17 07:35:13;;;;;;;2.60;2.40;;;14.40;29.80;;;;;;5133090;27;20222;-63
2021/12/17 07:40:25;;;;;;;2.63;2.42;;;14.30;29.70;;;;;;5132533;28;20197;-62
2021/12/17 07:42:54;;;;;;;2.60;2.40;;;14.30;29.70;;;;;;5132167;27;20213;-63
2021/12/17 07:45:21;;;;;;;3.38;2.40;;;14.30;29.80;;;;;;5132887;27;20245;-63
2021/12/17 07:47:48;;;;;;;2.47;2.28;;;14.30;29.80;;;;;;5132729;27;20213;-63
2021/12/17 07:50:16;;;;;;;2.63;2.40;;;14.30;29.80;;;;;;5132245;27;20475;-63
2021/12/17 07:52:43;;;;;;;2.90;2.60;;;14.30;29.80;;;;;;5098800;27;20277;-63
2021/12/17 07:55:10;;;;;;;2.55;2.33;;;14.30;29.80;;;;;;5079576;28;20506;-62
2021/12/17 07:57:38;;;;;;;2.63;2.42;;;14.30;29.70;;;;;;5070802;28;20208;-63
2021/12/17 08:00:08;;;;;;;2.83;2.55;;;14.30;29.80;;;;;;5071499;28;20219;-62
2021/12/17 08:02:35;;;;;;;2.72;2.53;;;14.30;29.80;;;;;;5071095;28;20205;-62
2021/12/17 08:05:02;;;;;;;2.60;2.40;;;14.30;29.80;;;;;;5070553;28;20235;-62
2021/12/17 08:07:29;;;;;;;2.40;2.20;;;14.30;29.80;;;;;;5070880;28;20208;-63
2021/12/17 08:09:57;;;;;;;2.65;2.45;;;14.30;29.80;;;;;;5071224;28;20208;-62
2021/12/17 08:12:24;;;;;;;2.90;2.60;;;14.30;29.80;;;;;;5070953;28;20209;-62
2021/12/17 08:14:51;;;;;;;2.60;2.40;;;14.30;29.80;;;;;;5071085;28;20235;-63
2021/12/17 08:17:39;;;;;;;2.83;2.60;;;14.20;29.80;;;;;;5070424;28;20200;-63
2021/12/17 08:23:42;;;;;;;2.60;2.40;;;14.20;29.70;;;;;;5070216;28;20203;-63
2021/12/17 08:26:07;;;;;;;2.38;2.17;;;14.20;29.70;;;;;;5070751;28;20295;-63
2021/12/17 08:28:52;;;;;;;2.55;2.35;;;14.20;29.70;;;;;;5070441;28;20262;-63
2021/12/17 08:31:20;;;;;;;2.58;2.38;;;14.20;29.70;;;;;;5071068;28;20231;-62
2021/12/17 08:33:49;;;;;;;2.47;2.28;;;14.20;29.80;;;;;;5070009;28;20212;-63
2021/12/17 08:36:16;;;;;;;2.40;2.20;;;14.20;29.80;;;;;;5065178;28;20200;-63
2021/12/17 08:38:43;;;;;;;2.35;2.15;;;14.20;29.80;;;;;;5056942;28;20209;-63
2021/12/17 08:41:11;;;;;;;2.38;2.17;;;14.20;29.80;;;;;;5057046;28;20197;-63
2021/12/17 08:43:38;;;;;;;2.47;2.28;;;14.20;29.80;;;;;;5057500;28;20201;-63
2021/12/17 08:46:06;;;;;;;2.38;2.17;;;14.20;29.80;;;;;;5056877;28;20233;-63
2021/12/17 08:48:33;;;;;;;1.98;1.85;;;14.20;29.80;;;;;;5056345;28;20276;-63
2021/12/17 08:51:06;;;;;;;2.30;2.10;;;14.20;29.80;;;;;;5056596;28;20197;-63
2021/12/17 08:53:33;;;;;;;2.30;2.10;;;14.20;29.80;;;;;;5056580;28;20267;-63
2021/12/17 08:56:01;;;;;;;3.42;2.90;;;14.20;29.80;;;;;;5056423;28;20216;-63
2021/12/17 08:58:28;;;;;;;4.07;3.30;;;14.20;29.90;;;;;;5055839;28;20213;-63
2021/12/17 09:00:55;;;;;;;3.55;2.80;;;14.20;29.80;;;;;;5055779;28;20287;-63
2021/12/17 09:03:23;;;;;;;2.97;2.67;;;14.20;29.80;;;;;;5055989;28;20209;-62
2021/12/17 09:05:50;;;;;;;2.85;2.50;;;14.20;29.80;;;;;;5056193;28;20224;-63
2021/12/17 09:08:19;;;;;;;3.10;2.88;;;14.20;29.90;;;;;;5054698;28;20237;-63
2021/12/17 09:10:48;;;;;;;2.97;2.40;;;14.20;29.90;;;;;;5054208;28;20205;-63
2021/12/17 09:13:15;;;;;;;3.53;2.40;;;14.20;29.90;;;;;;5053314;28;20608;-63
2021/12/17 09:15:42;;;;;;;3.03;2.72;;;14.20;29.90;;;;;;5052709;28;20197;-63
2021/12/17 09:18:09;;;;;;;2.72;2.53;;;14.10;29.90;;;;;;5053697;28;20209;-63
2021/12/17 09:20:37;;;;;;;2.40;2.20;;;14.20;30.00;;;;;;5054236;28;20213;-63
2021/12/17 09:23:04;;;;;;;3.28;2.33;;;14.10;29.90;;;;;;5053427;28;20555;-63
2021/12/17 09:25:33;;;;;;;2.65;2.40;;;14.10;29.90;;;;;;5053285;28;20233;-63
2021/12/17 09:28:00;;;;;;;2.53;2.33;;;14.10;29.90;;;;;;5053508;28;20201;-63
2021/12/17 09:30:27;;;;;;;2.70;2.50;;;14.20;29.90;;;;;;5054000;28;20209;-63
2021/12/17 09:32:54;;;;;;;3.17;2.30;;;14.10;29.90;;;;;;5053372;28;20235;-63
2021/12/17 09:35:24;;;;;;;3.00;2.67;;;14.20;30.00;;;;;;5053468;28;20201;-63
2021/12/17 09:37:51;;;;;;;2.72;2.53;;;14.20;30.00;;;;;;5053845;28;20636;-63
2021/12/17 09:40:19;;;;;;;2.35;2.15;;;14.10;29.90;;;;;;5053958;28;20212;-63
2021/12/17 09:42:48;;;;;;;2.63;2.35;;;14.10;29.90;;;;;;5053108;28;20193;-63
2021/12/17 09:45:16;;;;;;;2.58;2.38;;;14.20;30.00;;;;;;5053824;28;20229;-63
2021/12/17 09:47:45;;;;;;;3.83;2.53;;;14.10;30.00;;;;;;5052800;28;20216;-63
2021/12/17 09:50:15;;;;;;;3.58;2.70;;;14.10;29.90;;;;;;5051668;28;20205;-63
2021/12/17 09:52:42;;;;;;;2.90;2.70;;;14.10;29.90;;;;;;5052121;28;20207;-63
2021/12/17 09:55:10;;;;;;;2.83;2.63;;;14.10;30.60;;;;;;5054139;28;20212;-63
2021/12/17 09:57:38;;;;;;;2.75;2.25;;;14.10;30.00;;;;;;5054150;28;20209;-63
2021/12/17 10:00:11;;;;;;;2.47;2.28;;;14.10;30.00;;;;;;5052914;28;20509;-63
2021/12/17 10:02:38;;;;;;;3.05;2.80;;;14.10;30.00;;;;;;5052091;28;20216;-63
2021/12/17 10:05:06;;;;;;;3.33;2.50;;;14.10;30.00;;;;;;5057867;28;20233;-63
2021/12/17 10:07:36;;;;;;;2.47;2.28;;;14.10;30.00;;;;;;5052555;28;20496;-63
2021/12/17 10:10:06;;;;;;;2.50;2.30;;;14.10;30.00;;;;;;5052108;28;20192;-63
2021/12/17 10:12:35;;;;;;;4.10;3.70;;;14.10;30.00;;;;;;5053234;28;20204;-63
2021/12/17 10:15:06;;;;;;;3.83;3.50;;;14.10;30.00;;;;;;5052255;28;20573;-63
2021/12/17 10:17:37;;;;;;;3.67;3.38;;;14.10;30.00;;;;;;5050340;28;20596;-63
2021/12/17 10:20:06;;;;;;;3.83;3.47;;;14.10;30.00;;;;;;5051076;28;20724;-63
2021/12/17 10:22:34;;;;;;;4.03;3.47;;;14.10;30.00;;;;;;5051495;28;20277;-63
2021/12/17 10:25:05;;;;;;;7.45;6.72;;;14.10;30.00;;;;;;5051174;28;20248;-63
2021/12/17 10:27:33;;;;;;;6.93;5.88;;;14.10;30.00;;;;;;5051388;28;20201;-63
2021/12/17 10:30:11;;;;;;;7.85;6.95;;;14.10;30.00;;;;;;5051786;28;20220;-63
2021/12/17 10:32:43;;;;;;;8.18;7.25;;;14.00;30.00;;;;;;5051368;28;20264;-63
2021/12/17 10:35:12;;;;;;;9.20;7.43;;;14.10;30.10;;;;;;5054137;28;20259;-63
2021/12/17 10:37:41;;;;;;;8.32;6.80;;;14.10;30.20;;;;;;5053229;28;20227;-63
2021/12/17 10:40:18;;;;;;;8.43;7.60;;;14.10;30.30;;;;;;5054163;28;20738;-63
2021/12/17 10:42:53;;;;;;;9.55;7.50;;;14.10;30.40;;;;;;5054162;28;20208;-63
2021/12/17 10:45:26;;;;;;;9.38;7.95;;;14.10;30.50;;;;;;5052840;28;20216;-63
2021/12/17 10:48:25;;;;;;;14.02;7.10;;;14.10;30.70;;;;;;5053319;28;20540;-63
2021/12/17 10:50:55;;;;;;;12.55;9.55;;;14.10;30.70;;;;;;5054153;28;20477;-63
2021/12/17 10:53:26;;;;;;;11.45;10.27;;;14.20;30.70;;;;;;5053899;28;20482;-63
2021/12/17 10:55:54;;;;;;;10.90;9.88;;;14.20;30.80;;;;;;5053851;28;20197;-63
2021/12/17 10:58:22;;;;;;;13.00;10.18;;;14.20;30.70;;;;;;5053731;28;20204;-64
2021/12/17 11:00:55;;;;;;;11.23;9.27;;;14.20;30.70;;;;;;5053458;28;20205;-63
2021/12/17 11:03:25;;;;;;;10.05;8.50;;;14.20;30.80;;;;;;5052726;28;20201;-63
2021/12/17 11:05:53;;;;;;;10.50;9.30;;;14.30;30.80;;;;;;5052652;28;20225;-63
2021/12/17 11:08:28;;;;;;;9.57;8.68;;;14.20;30.60;;;;;;5053272;28;20599;-63
2021/12/17 11:11:00;;;;;;;8.98;8.05;;;14.30;30.90;;;;;;5052634;28;20209;-63
2021/12/17 11:13:28;;;;;;;8.75;7.95;;;14.30;31.00;;;;;;5051410;28;20414;-64
2021/12/17 11:15:55;;;;;;;10.93;8.23;;;14.30;31.20;;;;;;5052660;28;20208;-63
2021/12/17 11:18:27;;;;;;;8.93;8.02;;;14.30;31.20;;;;;;5052868;28;20205;-63
2021/12/17 11:20:58;;;;;;;9.38;7.88;;;14.40;31.20;;;;;;5052325;28;20209;-64
2021/12/17 11:23:32;;;;;;;10.88;7.70;;;14.30;31.20;;;;;;5053501;28;20205;-64
2021/12/17 11:26:03;;;;;;;8.73;7.82;;;14.40;31.00;;;;;;5062696;28;20243;-63
2021/12/17 11:28:30;;;;;;;8.18;7.38;;;14.40;31.10;;;;;;5072509;28;20196;-63
2021/12/17 11:30:58;;;;;;;10.40;7.70;;;14.40;31.50;;;;;;5072347;28;20501;-64
2021/12/17 11:33:26;;;;;;;7.45;6.75;;;14.40;31.00;;;;;;5070172;28;20200;-63
2021/12/17 11:35:55;;;;;;;7.82;7.03;;;14.40;30.90;;;;;;5070512;28;20208;-63
2021/12/17 11:38:35;;;;;;;7.40;6.70;;;14.40;30.90;;;;;;5090535;28;20215;-63
2021/12/17 11:41:08;;;;;;;7.38;6.65;;;14.40;31.10;;;;;;5089573;28;20679;-63
2021/12/17 11:43:51;;;;;;;7.70;6.50;;;14.40;31.10;;;;;;5090514;28;20605;-63
2021/12/17 11:46:22;;;;;;;7.13;6.35;;;14.40;31.20;;;;;;5091688;28;20223;-63
2021/12/17 11:48:52;;;;;;;7.45;6.75;;;14.50;31.20;;;;;;5090756;28;20763;-63
2021/12/17 11:51:25;;;;;;;6.43;5.75;;;14.40;31.10;;;;;;5090628;28;20455;-63
2021/12/17 11:54:08;;;;;;;6.88;6.07;;;14.40;31.10;;;;;;5091478;28;20257;-63
2021/12/17 11:56:42;;;;;;;7.28;6.18;;;14.50;31.00;;;;;;5088801;28;20414;-63
2021/12/17 11:59:31;;;;;;;7.85;6.22;;;14.50;31.00;;;;;;5078338;28;20618;-63
2021/12/17 12:02:02;;;;;;;7.05;5.90;;;14.50;31.10;;;;;;5072970;28;20196;-63
2021/12/17 12:04:56;;;;;;;6.90;5.90;;;14.50;31.10;;;;;;5070678;28;20211;-64
2021/12/17 12:07:36;;;;;;;6.22;5.55;;;14.50;31.00;;;;;;5070648;28;20230;-63
2021/12/17 12:10:22;;;;;;;6.10;5.30;;;14.40;30.90;;;;;;5070603;28;20251;-63
2021/12/17 12:12:58;;;;;;;5.90;5.30;;;14.50;31.00;;;;;;5072117;28;20214;-63
2021/12/17 12:15:40;;;;;;;6.10;5.50;;;14.50;31.00;;;;;;5066448;28;20307;-63
2021/12/17 12:18:16;;;;;;;5.80;5.20;;;14.50;31.00;;;;;;5074321;28;20591;-63
2021/12/17 12:21:07;;;;;;;5.40;4.90;;;14.50;30.90;;;;;;5073629;28;20381;-63
2021/12/17 12:23:42;;;;;;;5.38;4.63;;;14.50;30.90;;;;;;5074583;28;20215;-63
2021/12/17 12:26:39;;;;;;;5.20;4.70;;;14.50;30.90;;;;;;5072970;28;20239;-63
2021/12/17 12:29:12;;;;;;;5.38;4.88;;;14.50;30.90;;;;;;5094429;28;20571;-63
2021/12/17 12:31:45;;;;;;;5.20;4.72;;;14.50;30.90;;;;;;5093785;28;20510;-63
2021/12/17 12:34:15;;;;;;;5.50;4.55;;;14.60;31.00;;;;;;5094314;28;20218;-63
2021/12/17 12:36:48;;;;;;;5.25;4.75;;;14.50;30.80;;;;;;5093428;28;20204;-63
2021/12/17 12:39:18;;;;;;;4.50;4.10;;;14.50;30.80;;;;;;5093066;28;20212;-62
2021/12/17 12:41:47;;;;;;;4.95;4.45;;;14.50;30.80;;;;;;5092917;28;20204;-64
2021/12/17 12:44:14;;;;;;;4.78;4.38;;;14.50;30.80;;;;;;5094160;28;20487;-64
2021/12/17 12:46:51;;;;;;;4.18;3.78;;;14.50;30.80;;;;;;5092604;28;20219;-63
2021/12/17 12:49:52;;;;;;;4.32;3.92;;;14.50;30.70;;;;;;5094917;28;20208;-63
2021/12/17 12:52:25;;;;;;;4.55;4.05;;;14.50;30.70;;;;;;5012660;28;20709;-63
2021/12/17 12:54:55;;;;;;;3.92;3.63;;;14.60;30.70;;;;;;4947973;28;20223;-64
2021/12/17 12:57:28;;;;;;;3.90;3.60;;;14.50;30.70;;;;;;5015260;28;20217;-64
2021/12/17 12:59:57;;;;;;;4.47;3.80;;;14.50;30.70;;;;;;5088837;28;20207;-63
2021/12/17 13:02:25;;;;;;;4.15;3.85;;;14.50;30.60;;;;;;5094937;28;20214;-63
2021/12/17 13:04:55;;;;;;;6.20;4.55;;;14.50;30.60;;;;;;5095405;28;20208;-63
2021/12/17 13:07:34;;;;;;;5.03;4.63;;;14.50;30.60;;;;;;5092955;28;20220;-63
2021/12/17 13:10:10;;;;;;;6.43;5.70;;;14.60;30.70;;;;;;5094052;28;20234;-63
2021/12/17 13:12:38;;;;;;;6.20;5.70;;;14.50;30.50;;;;;;5092978;28;20199;-63
2021/12/17 13:15:17;;;;;;;6.15;5.60;;;14.50;30.50;;;;;;5094066;28;20204;-64
2021/12/17 13:20:55;;;;;;;5.30;4.80;;;14.50;30.60;;;;;;5080037;28;20551;-63
2021/12/17 13:23:24;;;;;;;5.97;5.35;;;14.50;30.60;;;;;;5074475;28;20683;-63
2021/12/17 13:26:08;;;;;;;6.05;5.45;;;14.60;30.70;;;;;;5075339;28;20656;-63
2021/12/17 13:28:51;;;;;;;6.38;5.15;;;14.50;30.70;;;;;;5073379;28;20208;-64
2021/12/17 13:31:38;;;;;;;5.32;4.70;;;14.60;30.80;;;;;;5089954;28;20253;-64
2021/12/17 13:34:20;;;;;;;9.23;4.85;;;14.60;30.80;;;;;;5095651;28;20282;-63
2021/12/17 13:37:02;;;;;;;6.15;4.80;;;14.60;30.80;;;;;;5095520;28;20211;-64
2021/12/17 13:39:32;;;;;;;5.80;4.75;;;14.60;30.80;;;;;;5094849;28;20200;-63
2021/12/17 13:42:01;;;;;;;8.40;6.60;;;14.60;30.80;;;;;;5095456;28;20496;-64
2021/12/17 13:44:40;;;;;;;7.63;6.82;;;14.60;30.80;;;;;;5092045;28;20545;-63
2021/12/17 13:47:15;;;;;;;8.02;7.15;;;14.60;30.90;;;;;;5082362;28;20323;-64
2021/12/17 13:49:45;;;;;;;8.05;6.20;;;14.60;30.90;;;;;;5079318;28;20302;-64
2021/12/17 13:52:12;;;;;;;7.75;6.25;;;14.60;31.00;;;;;;5054649;28;20219;-63
2021/12/17 13:54:40;;;;;;;8.27;7.47;;;14.60;31.00;;;;;;5055101;28;20208;-63
2021/12/17 13:57:14;;;;;;;11.52;10.02;;;14.60;31.00;;;;;;5054201;28;20220;-62
2021/12/17 13:59:42;;;;;;;9.77;8.93;;;14.60;31.00;;;;;;5054229;28;20269;-64
2021/12/17 14:02:14;;;;;;;9.63;8.73;;;14.70;31.20;;;;;;5054149;28;20701;-64
2021/12/17 14:04:42;;;;;;;10.18;8.50;;;14.70;31.30;;;;;;5054034;28;20221;-63
2021/12/17 14:07:10;;;;;;;9.80;8.00;;;14.70;31.30;;;;;;5053460;28;20227;-64
2021/12/17 14:09:37;;;;;;;7.93;7.13;;;14.70;31.40;;;;;;5053638;28;20219;-63
2021/12/17 14:12:30;;;;;;;8.57;7.78;;;14.70;31.40;;;;;;5054485;28;20205;-63
2021/12/17 14:14:59;;;;;;;8.57;6.47;;;14.80;31.50;;;;;;5064618;28;20228;-64
2021/12/17 14:17:34;;;;;;;7.22;6.40;;;14.80;31.70;;;;;;5073808;28;20197;-64
2021/12/17 14:20:11;;;;;;;6.75;6.05;;;14.80;31.60;;;;;;5073500;28;20211;-64
2021/12/17 14:22:40;;;;;;;8.38;5.93;;;14.80;31.70;;;;;;5073444;28;20220;-64
2021/12/17 14:25:35;;;;;;;8.70;5.82;;;14.80;31.80;;;;;;5073827;28;20232;-63
2021/12/17 14:28:11;;;;;;;6.20;5.60;;;14.90;31.80;;;;;;5072347;28;20220;-63
2021/12/17 14:30:39;;;;;;;5.70;5.20;;;14.90;31.90;;;;;;5074091;28;20714;-63
2021/12/17 14:33:10;;;;;;;7.82;5.13;;;14.90;31.90;;;;;;5073006;28;20215;-63
2021/12/17 14:35:47;;;;;;;7.05;4.97;;;14.90;31.90;;;;;;5071291;28;20200;-63
2021/12/17 14:38:18;;;;;;;5.13;4.63;;;14.90;32.00;;;;;;5072421;28;20207;-63
2021/12/17 14:40:57;;;;;;;4.85;4.45;;;15.00;31.90;;;;;;5071396;28;20208;-63
2021/12/17 14:43:28;;;;;;;5.47;4.00;;;14.90;31.80;;;;;;5068847;28;20277;-63
2021/12/17 14:46:07;;;;;;;4.53;4.03;;;15.00;31.90;;;;;;5072505;28;20235;-63
2021/12/17 14:48:42;;;;;;;4.40;4.00;;;15.00;31.90;;;;;;5071440;28;20668;-64
2021/12/17 15:02:53;;;;;;;4.55;3.70;;;15.10;31.70;;;;;;5130340;27;20835;-63
2021/12/17 15:05:24;;;;;;;4.95;3.88;;;15.10;31.60;;;;;;5129257;27;20258;-63
2021/12/17 15:07:52;;;;;;;27.70;23.15;;;15.10;31.60;;;;;;5131235;27;20292;-63
2021/12/17 15:10:22;;;;;;;23.88;20.55;;;15.10;31.50;;;;;;5131303;27;20310;-63
2021/12/17 15:12:51;;;;;;;20.38;18.25;;;15.10;31.50;;;;;;5131271;27;20569;-63
2021/12/17 15:15:20;;;;;;;19.02;16.33;;;15.10;31.40;;;;;;5130828;27;20202;-63
2021/12/17 15:17:50;;;;;;;18.58;16.60;;;15.10;31.30;;;;;;5131250;27;20210;-63
2021/12/17 15:20:20;;;;;;;19.23;16.48;;;15.10;31.40;;;;;;5131391;27;20203;-63
2021/12/17 15:22:48;;;;;;;18.63;15.68;;;15.10;31.40;;;;;;5130761;27;20222;-63
2021/12/17 15:25:16;;;;;;;18.23;15.40;;;15.10;31.30;;;;;;5130678;27;20210;-63
2021/12/17 15:27:44;;;;;;;17.75;15.02;;;15.10;31.40;;;;;;5131183;27;20507;-63
2021/12/17 15:30:17;;;;;;;18.27;14.73;;;15.10;31.30;;;;;;5130275;27;20493;-63
2021/12/17 15:32:45;;;;;;;16.23;13.65;;;15.10;31.40;;;;;;5109629;28;20586;-63